Time;durP1;ratioP1;P1;durP2;ratioP2;P2;SDS_P1;SDS_P2;PMS_P1;PMS_P2;Temp;Humidity;BMP_temperature;BMP_pressure;BME280_temperature;BME280_humidity;BME280_pressure;Samples;Min_cycle;Max_cycle;Signal;HPM_P1;HPM_P2
2022/04/10 00:00:39;;;;;;;;;9.75;4.00;;;;;;;;5060990;28;45527;-69
2022/04/10 00:03:04;;;;;;;;;7.00;5.67;;;;;;;;5079336;28;46446;-69
2022/04/10 00:05:29;;;;;;;;;8.00;5.00;;;;;;;;5079035;28;45257;-69
2022/04/10 00:07:55;;;;;;;;;8.00;4.00;;;;;;;;5078980;28;45232;-69
2022/04/10 00:10:20;;;;;;;;;10.00;5.00;;;;;;;;5079463;28;45173;-69
2022/04/10 00:12:45;;;;;;;;;5.00;5.00;;;;;;;;5078710;28;45626;-69
2022/04/10 00:15:11;;;;;;;;;8.00;4.67;;;;;;;;5079183;28;45162;-69
2022/04/10 00:17:36;;;;;;;;;11.33;3.00;;;;;;;;5079005;28;45414;-69
2022/04/10 00:20:02;;;;;;;;;5.00;3.00;;;;;;;;5079058;28;45245;-69
2022/04/10 00:22:27;;;;;;;;;7.00;3.00;;;;;;;;5079049;28;45647;-69
2022/04/10 00:24:52;;;;;;;;;5.67;4.33;;;;;;;;5078824;28;45429;-69
2022/04/10 00:27:18;;;;;;;;;5.33;4.00;;;;;;;;5079192;28;45358;-69
2022/04/10 00:29:43;;;;;;;;;7.00;4.00;;;;;;;;5079083;28;45549;-69
2022/04/10 00:32:09;;;;;;;;;6.67;5.00;;;;;;;;5078538;28;45540;-69
2022/04/10 00:34:34;;;;;;;;;9.00;3.67;;;;;;;;5078713;28;45406;-69
2022/04/10 00:36:59;;;;;;;;;5.00;4.00;;;;;;;;5078854;28;45351;-69
2022/04/10 00:39:24;;;;;;;;;8.67;4.67;;;;;;;;5077739;28;45287;-69
2022/04/10 00:41:50;;;;;;;;;3.67;2.67;;;;;;;;5078406;28;46364;-69
2022/04/10 00:44:16;;;;;;;;;8.33;4.33;;;;;;;;5078540;28;45401;-69
2022/04/10 00:46:41;;;;;;;;;8.67;7.00;;;;;;;;5078497;28;45334;-69
2022/04/10 00:49:07;;;;;;;;;5.00;3.67;;;;;;;;5078749;28;45453;-69
2022/04/10 00:51:43;;;;;;;;;7.67;3.67;;;;;;;;5078311;28;46223;-69
2022/04/10 00:54:09;;;;;;;;;6.00;4.00;;;;;;;;5078033;28;45426;-69
2022/04/10 00:56:35;;;;;;;;;7.67;4.00;;;;;;;;5078480;28;45227;-69
2022/04/10 00:59:01;;;;;;;;;5.00;4.00;;;;;;;;5078814;28;45339;-69
2022/04/10 01:01:27;;;;;;;;;6.75;3.50;;;;;;;;5078193;28;47480;-69
2022/04/10 01:03:52;;;;;;;;;3.50;3.50;;;;;;;;5078188;28;45404;-69
2022/04/10 01:06:17;;;;;;;;;4.00;4.00;;;;;;;;5078316;28;45295;-69
2022/04/10 01:08:43;;;;;;;;;3.25;2.00;;;;;;;;5078144;28;45503;-69
2022/04/10 01:11:08;;;;;;;;;3.00;3.00;;;;;;;;5060046;28;46018;-69
2022/04/10 01:13:33;;;;;;;;;1.25;1.25;;;;;;;;5078094;28;45434;-69
2022/04/10 01:15:59;;;;;;;;;4.00;2.00;;;;;;;;5078176;28;45448;-69
2022/04/10 01:18:25;;;;;;;;;5.00;3.67;;;;;;;;5078224;28;45444;-69
2022/04/10 01:20:50;;;;;;;;;2.67;1.67;;;;;;;;5077675;28;46406;-69
2022/04/10 01:23:16;;;;;;;;;3.25;3.25;;;;;;;;5077993;28;45409;-69
2022/04/10 01:25:41;;;;;;;;;4.75;3.00;;;;;;;;5078022;28;45344;-69
2022/04/10 01:28:10;;;;;;;;;8.33;3.67;;;;;;;;5078236;28;45418;-69
2022/04/10 01:30:35;;;;;;;;;5.00;3.33;;;;;;;;5077863;28;46431;-69
2022/04/10 01:33:00;;;;;;;;;6.67;4.33;;;;;;;;5077840;28;45353;-69
2022/04/10 01:35:26;;;;;;;;;8.00;4.00;;;;;;;;5078131;28;45407;-69
2022/04/10 01:37:52;;;;;;;;;4.00;3.00;;;;;;;;5077918;28;45232;-69
2022/04/10 01:40:17;;;;;;;;;5.00;4.00;;;;;;;;5077640;28;45768;-69
2022/04/10 01:42:42;;;;;;;;;8.25;4.00;;;;;;;;5077268;28;45333;-69
2022/04/10 01:45:08;;;;;;;;;4.00;4.00;;;;;;;;5077786;28;45393;-69
2022/04/10 01:47:33;;;;;;;;;4.00;3.00;;;;;;;;5078132;28;45409;-69
2022/04/10 01:49:58;;;;;;;;;5.33;4.00;;;;;;;;5077284;28;45606;-69
2022/04/10 01:52:23;;;;;;;;;6.67;4.33;;;;;;;;5077633;28;45277;-68
2022/04/10 01:54:48;;;;;;;;;2.00;2.00;;;;;;;;5077619;28;45312;-69
2022/04/10 01:57:14;;;;;;;;;11.00;4.67;;;;;;;;5077631;28;45353;-69
2022/04/10 01:59:39;;;;;;;;;6.67;4.67;;;;;;;;5077455;28;46630;-69
2022/04/10 02:02:04;;;;;;;;;7.00;5.00;;;;;;;;5077379;28;45383;-69
2022/04/10 02:04:30;;;;;;;;;7.00;4.67;;;;;;;;5077629;28;45288;-69
2022/04/10 02:06:55;;;;;;;;;9.00;5.67;;;;;;;;5077619;28;45394;-69
2022/04/10 02:09:20;;;;;;;;;7.67;4.67;;;;;;;;5077193;28;45432;-69
2022/04/10 02:11:45;;;;;;;;;5.33;5.33;;;;;;;;5077582;28;45434;-69
2022/04/10 02:14:11;;;;;;;;;10.33;5.33;;;;;;;;5059343;28;45396;-69
2022/04/10 02:16:36;;;;;;;;;6.33;5.67;;;;;;;;5077569;28;45334;-69
2022/04/10 02:19:02;;;;;;;;;5.67;5.33;;;;;;;;5077143;28;46111;-69
2022/04/10 02:21:27;;;;;;;;;7.00;7.00;;;;;;;;5077292;28;45465;-69
2022/04/10 02:23:52;;;;;;;;;8.67;7.00;;;;;;;;5077338;28;45423;-69
2022/04/10 02:26:17;;;;;;;;;9.00;5.33;;;;;;;;5077519;28;45529;-69
2022/04/10 02:28:43;;;;;;;;;7.67;7.00;;;;;;;;5077308;28;46591;-69
2022/04/10 02:31:08;;;;;;;;;9.33;4.00;;;;;;;;5077097;28;45252;-69
2022/04/10 02:33:33;;;;;;;;;8.00;5.33;;;;;;;;5077181;28;45328;-69
2022/04/10 02:35:59;;;;;;;;;7.00;4.67;;;;;;;;5077436;28;45423;-69
2022/04/10 02:38:25;;;;;;;;;9.67;7.33;;;;;;;;5075859;28;45592;-69
2022/04/10 02:40:50;;;;;;;;;7.00;7.00;;;;;;;;5076948;28;45351;-69
2022/04/10 02:43:15;;;;;;;;;5.00;4.67;;;;;;;;5077160;28;45200;-69
2022/04/10 02:45:41;;;;;;;;;11.67;6.67;;;;;;;;5077391;28;45324;-69
2022/04/10 02:48:06;;;;;;;;;9.00;5.67;;;;;;;;5076830;28;45398;-69
2022/04/10 02:50:31;;;;;;;;;8.00;5.33;;;;;;;;5076806;28;45340;-69
2022/04/10 02:52:57;;;;;;;;;4.33;4.33;;;;;;;;5076989;28;45480;-69
2022/04/10 02:55:22;;;;;;;;;7.33;4.00;;;;;;;;5070029;28;45368;-69
2022/04/10 02:57:47;;;;;;;;;5.67;5.33;;;;;;;;5065617;28;45289;-68
2022/04/10 03:00:13;;;;;;;;;5.33;3.00;;;;;;;;5076571;28;45213;-69
2022/04/10 03:02:38;;;;;;;;;9.33;6.67;;;;;;;;5078523;28;45440;-68
2022/04/10 03:05:04;;;;;;;;;10.00;7.00;;;;;;;;5080614;28;45380;-68
2022/04/10 03:07:29;;;;;;;;;7.33;5.67;;;;;;;;5079890;28;46110;-68
2022/04/10 03:09:54;;;;;;;;;9.00;7.00;;;;;;;;5080252;28;45499;-68
2022/04/10 03:12:19;;;;;;;;;4.00;3.00;;;;;;;;5080277;28;45468;-69
2022/04/10 03:14:45;;;;;;;;;9.67;7.67;;;;;;;;5080212;28;45384;-68
2022/04/10 03:17:10;;;;;;;;;10.67;7.33;;;;;;;;5079813;28;46439;-69
2022/04/10 03:19:35;;;;;;;;;12.33;7.00;;;;;;;;5061668;28;45903;-68
2022/04/10 03:22:00;;;;;;;;;7.00;7.00;;;;;;;;5080175;28;45333;-68
2022/04/10 03:24:25;;;;;;;;;7.67;4.00;;;;;;;;5080032;28;45330;-69
2022/04/10 03:26:51;;;;;;;;;6.33;6.33;;;;;;;;5079785;28;45353;-69
2022/04/10 03:29:17;;;;;;;;;8.33;6.00;;;;;;;;5079671;28;45412;-69
2022/04/10 03:31:42;;;;;;;;;9.67;5.33;;;;;;;;5078851;28;45434;-69
2022/04/10 03:34:07;;;;;;;;;10.00;6.00;;;;;;;;5080138;28;45340;-69
2022/04/10 03:36:32;;;;;;;;;8.33;6.33;;;;;;;;5079437;28;45731;-69
2022/04/10 03:38:57;;;;;;;;;5.67;4.00;;;;;;;;5079566;28;45349;-69
2022/04/10 03:41:23;;;;;;;;;6.00;4.00;;;;;;;;5079682;28;45325;-68
2022/04/10 03:43:48;;;;;;;;;5.00;5.00;;;;;;;;5079906;28;45190;-69
2022/04/10 03:46:13;;;;;;;;;10.67;6.33;;;;;;;;5079206;28;45658;-68
2022/04/10 03:48:38;;;;;;;;;8.67;7.00;;;;;;;;5079357;28;45314;-68
2022/04/10 03:51:03;;;;;;;;;7.33;6.33;;;;;;;;5079716;28;45308;-69
2022/04/10 03:53:29;;;;;;;;;8.33;6.00;;;;;;;;5079608;28;45155;-69
2022/04/10 03:55:57;;;;;;;;;7.67;7.67;;;;;;;;5078781;28;46085;-69
2022/04/10 03:58:22;;;;;;;;;4.67;4.67;;;;;;;;5079486;28;45381;-68
2022/04/10 04:00:47;;;;;;;;;12.33;7.67;;;;;;;;5079319;28;45364;-69
2022/04/10 04:03:13;;;;;;;;;32.67;29.00;;;;;;;;5079451;28;45535;-69
2022/04/10 04:05:38;;;;;;;;;8.00;8.00;;;;;;;;5079018;28;46555;-69
2022/04/10 04:08:04;;;;;;;;;21.00;14.00;;;;;;;;5079089;28;45245;-69
2022/04/10 04:10:33;;;;;;;;;10.00;8.00;;;;;;;;5079088;28;45340;-69
2022/04/10 04:12:58;;;;;;;;;13.00;8.67;;;;;;;;5079359;28;45415;-69
2022/04/10 04:15:24;;;;;;;;;9.00;8.67;;;;;;;;5078755;28;46474;-69
2022/04/10 04:17:49;;;;;;;;;11.33;8.00;;;;;;;;5078242;28;45380;-69
2022/04/10 04:20:14;;;;;;;;;7.67;7.00;;;;;;;;5079014;28;45327;-69
2022/04/10 04:22:39;;;;;;;;;9.67;7.00;;;;;;;;5079321;28;45171;-69
2022/04/10 04:25:06;;;;;;;;;9.00;6.67;;;;;;;;5078713;28;47037;-69
2022/04/10 04:27:31;;;;;;;;;12.67;10.00;;;;;;;;5078992;28;45443;-69
2022/04/10 04:29:56;;;;;;;;;8.67;7.33;;;;;;;;5079348;28;45301;-69
2022/04/10 04:32:21;;;;;;;;;9.67;7.67;;;;;;;;5079041;28;45357;-69
2022/04/10 04:34:47;;;;;;;;;7.33;7.33;;;;;;;;5078880;28;46625;-69
2022/04/10 04:37:13;;;;;;;;;12.33;8.33;;;;;;;;5078748;28;45237;-69
2022/04/10 04:39:38;;;;;;;;;14.00;8.00;;;;;;;;5078462;28;45533;-69
2022/04/10 04:42:03;;;;;;;;;11.67;9.67;;;;;;;;5079114;28;45312;-69
2022/04/10 04:44:30;;;;;;;;;10.00;9.00;;;;;;;;5078472;28;46359;-69
2022/04/10 04:46:56;;;;;;;;;12.00;8.00;;;;;;;;5078691;28;45411;-69
2022/04/10 04:49:21;;;;;;;;;8.33;7.67;;;;;;;;5078724;28;45407;-69
2022/04/10 04:51:46;;;;;;;;;10.67;10.67;;;;;;;;5078843;28;45300;-69
2022/04/10 04:54:12;;;;;;;;;11.33;7.33;;;;;;;;5078369;28;46554;-69
2022/04/10 04:56:37;;;;;;;;;9.00;7.33;;;;;;;;5077983;28;45408;-69
2022/04/10 04:59:02;;;;;;;;;9.67;8.00;;;;;;;;5078534;28;45406;-69
2022/04/10 05:01:27;;;;;;;;;7.67;7.67;;;;;;;;5078413;28;45437;-69
2022/04/10 05:03:53;;;;;;;;;10.67;7.67;;;;;;;;5078198;28;46339;-69
2022/04/10 05:06:18;;;;;;;;;9.33;7.67;;;;;;;;5078140;28;45359;-69
2022/04/10 05:08:46;;;;;;;;;9.33;9.33;;;;;;;;5078205;28;45324;-69
2022/04/10 05:11:12;;;;;;;;;8.67;5.33;;;;;;;;5078264;28;45495;-69
2022/04/10 05:13:37;;;;;;;;;13.00;7.67;;;;;;;;5078009;28;47454;-69
2022/04/10 05:16:02;;;;;;;;;15.33;14.00;;;;;;;;5077912;28;45445;-69
2022/04/10 05:18:28;;;;;;;;;13.00;12.67;;;;;;;;5078208;28;45282;-69
2022/04/10 05:20:53;;;;;;;;;14.67;14.67;;;;;;;;5078358;28;45378;-69
2022/04/10 05:23:19;;;;;;;;;15.67;9.00;;;;;;;;5078128;28;45477;-69
2022/04/10 05:25:45;;;;;;;;;10.00;8.33;;;;;;;;5077140;28;45356;-69
2022/04/10 05:28:11;;;;;;;;;11.67;8.00;;;;;;;;5078080;28;45419;-70
2022/04/10 05:30:36;;;;;;;;;12.00;7.33;;;;;;;;5077853;28;45360;-69
2022/04/10 05:33:01;;;;;;;;;17.00;15.67;;;;;;;;5077610;28;46044;-69
2022/04/10 05:35:27;;;;;;;;;6.00;6.00;;;;;;;;5077968;28;45309;-69
2022/04/10 05:37:52;;;;;;;;;10.00;10.00;;;;;;;;5077863;28;45415;-69
2022/04/10 05:40:17;;;;;;;;;24.00;16.33;;;;;;;;5077869;28;45335;-69
2022/04/10 05:42:46;;;;;;;;;7.00;7.00;;;;;;;;5077577;28;46616;-69
2022/04/10 05:45:11;;;;;;;;;16.00;9.00;;;;;;;;5077328;28;45407;-69
2022/04/10 05:47:39;;;;;;;;;10.67;9.67;;;;;;;;5077916;28;45205;-69
2022/04/10 05:50:05;;;;;;;;;10.33;9.00;;;;;;;;5077860;28;45571;-69
2022/04/10 05:52:30;;;;;;;;;9.67;8.00;;;;;;;;5077094;28;48098;-69
2022/04/10 05:54:58;;;;;;;;;26.33;22.00;;;;;;;;5077587;28;45382;-69
2022/04/10 05:57:24;;;;;;;;;12.00;9.33;;;;;;;;5077397;28;45340;-69
2022/04/10 05:59:49;;;;;;;;;13.67;10.00;;;;;;;;5077577;28;45304;-69
2022/04/10 06:02:14;;;;;;;;;12.00;10.00;;;;;;;;5077219;28;45444;-69
2022/04/10 06:04:40;;;;;;;;;11.00;9.33;;;;;;;;5077305;28;45356;-69
2022/04/10 06:07:05;;;;;;;;;9.33;8.00;;;;;;;;5077718;28;45342;-69
2022/04/10 06:09:30;;;;;;;;;9.67;8.33;;;;;;;;5077490;28;45393;-69
2022/04/10 06:11:55;;;;;;;;;12.00;8.00;;;;;;;;5077316;28;45542;-69
2022/04/10 06:14:22;;;;;;;;;11.00;7.00;;;;;;;;5077185;28;45369;-69
2022/04/10 06:16:48;;;;;;;;;15.00;8.33;;;;;;;;5077382;28;45427;-69
2022/04/10 06:19:16;;;;;;;;;8.00;8.00;;;;;;;;5077439;28;45627;-68
2022/04/10 06:21:41;;;;;;;;;14.67;11.67;;;;;;;;5077307;28;46206;-68
2022/04/10 06:24:06;;;;;;;;;12.67;11.00;;;;;;;;5077231;28;45285;-69
2022/04/10 06:26:31;;;;;;;;;12.33;10.67;;;;;;;;5077211;28;45544;-68
2022/04/10 06:28:57;;;;;;;;;15.00;11.00;;;;;;;;5077384;28;45368;-68
2022/04/10 06:31:22;;;;;;;;;12.33;11.00;;;;;;;;5076986;28;46615;-68
2022/04/10 06:33:47;;;;;;;;;17.67;10.67;;;;;;;;5077103;28;45348;-68
2022/04/10 06:36:12;;;;;;;;;19.33;13.33;;;;;;;;5077183;28;45477;-68
2022/04/10 06:38:37;;;;;;;;;16.67;10.00;;;;;;;;5080725;28;45490;-68
2022/04/10 06:41:03;;;;;;;;;14.00;12.00;;;;;;;;5080320;28;46450;-69
2022/04/10 06:43:28;;;;;;;;;11.67;11.00;;;;;;;;5080507;28;45292;-68
2022/04/10 06:45:53;;;;;;;;;14.33;11.00;;;;;;;;5080477;28;45237;-69
2022/04/10 06:48:19;;;;;;;;;11.67;10.67;;;;;;;;5080705;28;45530;-70
2022/04/10 06:50:44;;;;;;;;;10.00;9.00;;;;;;;;5080287;28;47273;-69
2022/04/10 06:53:09;;;;;;;;;9.67;9.00;;;;;;;;5080216;28;45411;-69
2022/04/10 06:55:35;;;;;;;;;14.67;12.00;;;;;;;;5061939;28;45487;-69
2022/04/10 06:58:00;;;;;;;;;10.33;10.33;;;;;;;;5080448;28;45391;-69
2022/04/10 07:00:25;;;;;;;;;13.33;10.00;;;;;;;;5080377;28;46230;-69
2022/04/10 07:02:50;;;;;;;;;13.67;12.33;;;;;;;;5079699;28;45487;-69
2022/04/10 07:05:16;;;;;;;;;10.00;6.33;;;;;;;;5080241;28;45356;-69
2022/04/10 07:07:41;;;;;;;;;14.00;10.67;;;;;;;;5080266;28;45198;-69
2022/04/10 07:10:06;;;;;;;;;12.67;11.00;;;;;;;;5079945;28;45430;-69
2022/04/10 07:12:31;;;;;;;;;13.33;11.33;;;;;;;;5079598;28;45230;-69
2022/04/10 07:15:00;;;;;;;;;13.00;8.67;;;;;;;;5080238;28;45348;-69
2022/04/10 07:17:25;;;;;;;;;16.00;10.00;;;;;;;;5080312;28;45315;-69
2022/04/10 07:19:50;;;;;;;;;10.33;10.33;;;;;;;;5079629;28;46157;-69
2022/04/10 07:24:59;;;;;;;;;16.33;16.00;;;;;;;;5080219;28;45375;-69
2022/04/10 07:27:24;;;;;;;;;13.33;10.33;;;;;;;;5079765;28;45639;-69
2022/04/10 07:29:50;;;;;;;;;18.33;12.00;;;;;;;;5079572;28;46735;-69
2022/04/10 07:32:15;;;;;;;;;13.00;10.67;;;;;;;;5079845;28;45288;-69
2022/04/10 07:34:40;;;;;;;;;16.67;11.33;;;;;;;;5079876;28;45431;-69
2022/04/10 07:37:06;;;;;;;;;15.67;12.33;;;;;;;;5080048;28;45312;-69
2022/04/10 07:39:31;;;;;;;;;15.67;14.00;;;;;;;;5079438;28;46455;-69
2022/04/10 07:41:56;;;;;;;;;15.00;12.00;;;;;;;;5078699;28;45383;-69
2022/04/10 07:44:21;;;;;;;;;17.67;11.00;;;;;;;;5079855;28;45304;-68
2022/04/10 07:49:30;;;;;;;;;9.67;8.67;;;;;;;;5079090;28;45845;-68
2022/04/10 07:51:56;;;;;;;;;9.67;9.67;;;;;;;;5079557;28;45430;-68
2022/04/10 07:54:21;;;;;;;;;12.00;12.00;;;;;;;;5079204;28;45335;-70
2022/04/10 07:56:46;;;;;;;;;13.00;12.00;;;;;;;;5079348;28;45383;-69
2022/04/10 07:59:11;;;;;;;;;11.00;10.00;;;;;;;;5079311;28;46460;-69
2022/04/10 08:01:37;;;;;;;;;15.00;10.00;;;;;;;;5079068;28;45359;-72
2022/04/10 08:04:03;;;;;;;;;12.33;9.67;;;;;;;;5079413;28;45304;-69
2022/04/10 08:06:28;;;;;;;;;13.67;11.00;;;;;;;;5079194;28;45400;-68
2022/04/10 08:08:53;;;;;;;;;14.33;12.00;;;;;;;;5078851;28;45598;-68
2022/04/10 08:11:19;;;;;;;;;10.00;10.00;;;;;;;;5078938;28;45571;-69
2022/04/10 08:13:44;;;;;;;;;13.00;11.33;;;;;;;;5078963;28;45201;-68
2022/04/10 08:16:09;;;;;;;;;15.33;12.67;;;;;;;;5079673;28;45420;-68
2022/04/10 08:18:34;;;;;;;;;15.67;12.33;;;;;;;;5078782;28;45289;-68
2022/04/10 08:21:00;;;;;;;;;11.67;11.00;;;;;;;;5078725;28;45379;-68
2022/04/10 08:23:25;;;;;;;;;12.67;11.67;;;;;;;;5079214;28;45386;-68
2022/04/10 08:25:50;;;;;;;;;9.67;8.33;;;;;;;;5078366;28;45455;-68
2022/04/10 08:28:15;;;;;;;;;11.00;11.00;;;;;;;;5077936;28;45424;-70
2022/04/10 08:30:40;;;;;;;;;12.33;11.00;;;;;;;;5078877;28;45398;-69
2022/04/10 08:33:08;;;;;;;;;14.67;11.00;;;;;;;;5078738;28;45370;-69
2022/04/10 08:35:33;;;;;;;;;14.00;11.00;;;;;;;;5078982;28;45226;-70
2022/04/10 08:37:59;;;;;;;;;11.33;10.33;;;;;;;;5078256;28;45741;-68
2022/04/10 08:40:25;;;;;;;;;11.33;11.33;;;;;;;;5078600;28;45316;-70
2022/04/10 08:42:51;;;;;;;;;18.00;12.33;;;;;;;;5078634;28;45414;-70
2022/04/10 08:45:23;;;;;;;;;15.33;12.00;;;;;;;;5078820;28;45289;-70
2022/04/10 08:47:48;;;;;;;;;8.33;6.33;;;;;;;;5078599;28;46846;-70
2022/04/10 08:50:14;;;;;;;;;11.67;10.00;;;;;;;;5077961;28;45450;-68
2022/04/10 08:52:39;;;;;;;;;9.67;9.67;;;;;;;;5078595;28;45335;-69
2022/04/10 08:55:04;;;;;;;;;15.67;11.00;;;;;;;;5078797;28;45364;-69
2022/04/10 08:57:30;;;;;;;;;15.00;10.00;;;;;;;;5077922;28;46276;-68
2022/04/10 08:59:56;;;;;;;;;8.67;6.00;;;;;;;;5077318;28;45311;-68
2022/04/10 09:02:21;;;;;;;;;10.00;8.67;;;;;;;;5078132;28;45298;-68
2022/04/10 09:04:46;;;;;;;;;16.33;10.00;;;;;;;;5078227;28;45388;-69
2022/04/10 09:07:12;;;;;;;;;6.00;5.00;;;;;;;;5078199;28;46100;-68
2022/04/10 09:09:40;;;;;;;;;9.33;9.00;;;;;;;;5077942;28;45392;-68
2022/04/10 09:12:06;;;;;;;;;6.33;5.00;;;;;;;;5077847;28;45427;-68
2022/04/10 09:14:34;;;;;;;;;6.67;3.67;;;;;;;;5078275;28;45443;-68
2022/04/10 09:17:12;;;;;;;;;7.00;6.00;;;;;;;;5078193;28;45399;-68
2022/04/10 09:19:38;;;;;;;;;10.00;10.00;;;;;;;;5077840;28;45312;-68
2022/04/10 09:22:42;;;;;;;;;6.67;5.00;;;;;;;;5078224;28;45477;-68
2022/04/10 09:25:07;;;;;;;;;6.25;4.00;;;;;;;;4976441;28;45430;-69
2022/04/10 09:27:34;;;;;;;;;4.00;3.00;;;;;;;;4975301;28;45863;-68
2022/04/10 09:30:00;;;;;;;;;4.50;4.50;;;;;;;;4956687;28;45373;-68
2022/04/10 09:32:37;;;;;;;;;5.25;3.50;;;;;;;;4956394;28;45327;-68
2022/04/10 09:35:02;;;;;;;;;6.00;6.00;;;;;;;;4956424;28;45265;-68
2022/04/10 09:37:30;;;;;;;;;4.67;2.67;;;;;;;;4984693;28;46319;-68
2022/04/10 09:40:15;;;;;;;;;7.00;5.00;;;;;;;;4993341;28;45313;-68
2022/04/10 09:42:40;;;;;;;;;5.33;5.33;;;;;;;;4995155;28;45428;-69
2022/04/10 09:45:25;;;;;;;;;6.00;5.00;;;;;;;;4995595;28;45426;-68
2022/04/10 09:47:50;;;;;;;;;4.00;4.00;;;;;;;;4995128;28;45757;-68
2022/04/10 09:50:15;;;;;;;;;3.33;3.33;;;;;;;;4995373;28;45428;-68
2022/04/10 09:52:40;;;;;;;;;6.00;5.00;;;;;;;;4995124;28;45343;-68
2022/04/10 09:55:08;;;;;;;;;5.00;5.00;;;;;;;;5013742;27;45448;-68
2022/04/10 09:57:34;;;;;;;;;5.00;5.00;;;;;;;;5097727;27;46557;-68
2022/04/10 10:00:01;;;;;;;;;2.67;2.67;;;;;;;;5097792;27;45403;-68
2022/04/10 10:02:27;;;;;;;;;3.00;3.00;;;;;;;;5098212;27;45242;-68
2022/04/10 10:04:55;;;;;;;;;5.33;3.33;;;;;;;;5097799;27;45319;-68
2022/04/10 10:07:20;;;;;;;;;4.00;4.00;;;;;;;;5097671;27;46092;-67
2022/04/10 10:09:48;;;;;;;;;4.67;4.67;;;;;;;;5097168;27;45609;-67
2022/04/10 10:12:13;;;;;;;;;2.67;2.67;;;;;;;;5100010;27;45371;-67
2022/04/10 10:14:39;;;;;;;;;5.67;5.00;;;;;;;;5090442;27;45550;-67
2022/04/10 10:17:05;;;;;;;;;10.00;5.33;;;;;;;;5100785;27;45804;-67
2022/04/10 10:19:35;;;;;;;;;4.00;4.00;;;;;;;;5084239;27;45447;-67
2022/04/10 10:22:04;;;;;;;;;6.00;6.00;;;;;;;;5101052;27;45982;-67
2022/04/10 10:24:33;;;;;;;;;11.33;7.67;;;;;;;;5081010;27;45226;-67
2022/04/10 10:26:58;;;;;;;;;3.00;3.00;;;;;;;;5083952;27;46692;-67
2022/04/10 10:29:35;;;;;;;;;4.67;4.67;;;;;;;;5081219;27;45719;-67
2022/04/10 10:32:21;;;;;;;;;6.00;6.00;;;;;;;;5080698;28;45305;-67
2022/04/10 10:34:49;;;;;;;;;7.33;6.00;;;;;;;;5079857;27;45290;-67
2022/04/10 10:37:14;;;;;;;;;5.33;5.33;;;;;;;;5080674;28;46281;-67
2022/04/10 10:39:46;;;;;;;;;8.00;8.00;;;;;;;;5093926;27;45506;-67
2022/04/10 10:42:12;;;;;;;;;3.33;3.00;;;;;;;;5090730;27;45324;-67
2022/04/10 10:44:38;;;;;;;;;6.00;6.00;;;;;;;;5081257;27;45454;-67
2022/04/10 10:47:04;;;;;;;;;4.00;4.00;;;;;;;;5094813;27;46109;-68
2022/04/10 10:49:30;;;;;;;;;9.33;8.00;;;;;;;;5100430;27;45447;-67
2022/04/10 10:51:56;;;;;;;;;6.00;6.00;;;;;;;;5101344;27;45299;-67
2022/04/10 10:54:24;;;;;;;;;11.00;7.00;;;;;;;;5088622;27;45414;-68
2022/04/10 10:56:50;;;;;;;;;6.67;6.67;;;;;;;;5098621;27;47564;-68
2022/04/10 10:59:34;;;;;;;;;5.33;5.33;;;;;;;;5090573;27;45414;-68
2022/04/10 11:02:25;;;;;;;;;5.33;5.33;;;;;;;;5080608;28;45528;-68
2022/04/10 11:04:50;;;;;;;;;9.00;7.33;;;;;;;;5077408;27;45346;-68
2022/04/10 11:07:19;;;;;;;;;6.00;6.00;;;;;;;;5079950;28;46311;-68
2022/04/10 11:09:47;;;;;;;;;6.00;6.00;;;;;;;;5080012;28;45293;-68
2022/04/10 11:12:13;;;;;;;;;9.33;7.00;;;;;;;;5081215;27;45418;-68
2022/04/10 11:14:39;;;;;;;;;5.67;5.33;;;;;;;;5080457;27;45328;-68
2022/04/10 11:17:13;;;;;;;;;4.33;3.00;;;;;;;;5079860;28;46222;-68
2022/04/10 11:19:39;;;;;;;;;5.33;5.33;;;;;;;;5095900;27;45302;-68
2022/04/10 11:22:04;;;;;;;;;5.33;4.33;;;;;;;;5081270;27;45371;-68
2022/04/10 11:24:30;;;;;;;;;4.33;4.33;;;;;;;;5079934;28;45467;-68
2022/04/10 11:26:56;;;;;;;;;7.33;7.33;;;;;;;;5092822;27;45506;-68
2022/04/10 11:29:21;;;;;;;;;6.67;5.00;;;;;;;;5079572;27;45360;-68
2022/04/10 11:31:51;;;;;;;;;6.00;6.00;;;;;;;;5079866;28;45297;-68
2022/04/10 11:34:19;;;;;;;;;8.00;8.00;;;;;;;;5082325;27;45507;-68
2022/04/10 11:36:47;;;;;;;;;5.33;5.33;;;;;;;;5099048;27;46469;-67
2022/04/10 11:39:13;;;;;;;;;5.00;5.00;;;;;;;;5084777;27;45225;-68
2022/04/10 11:41:40;;;;;;;;;9.33;7.67;;;;;;;;5079784;28;45235;-68
2022/04/10 11:44:07;;;;;;;;;8.33;8.33;;;;;;;;5095125;27;45555;-68
2022/04/10 11:46:32;;;;;;;;;6.33;5.33;;;;;;;;5092906;27;45891;-68
2022/04/10 11:48:58;;;;;;;;;5.00;5.00;;;;;;;;5095173;27;45515;-69
2022/04/10 11:51:23;;;;;;;;;4.00;3.67;;;;;;;;5079376;27;45738;-69
2022/04/10 11:53:55;;;;;;;;;7.00;6.00;;;;;;;;5079291;27;45388;-69
2022/04/10 11:56:23;;;;;;;;;9.00;6.00;;;;;;;;5082544;27;46387;-68
2022/04/10 11:58:49;;;;;;;;;8.33;6.67;;;;;;;;5080491;27;45435;-69
2022/04/10 12:01:14;;;;;;;;;8.33;8.33;;;;;;;;5078364;28;45461;-68
2022/04/10 12:03:41;;;;;;;;;9.33;8.00;;;;;;;;5077834;28;45301;-70
2022/04/10 12:06:08;;;;;;;;;8.33;6.00;;;;;;;;5077603;27;46347;-70
2022/04/10 12:08:34;;;;;;;;;8.67;8.67;;;;;;;;5093012;27;45399;-71
2022/04/10 12:11:00;;;;;;;;;8.67;8.67;;;;;;;;5085519;27;45488;-69
2022/04/10 12:13:37;;;;;;;;;11.00;9.67;;;;;;;;5099192;27;45423;-70
2022/04/10 12:16:10;;;;;;;;;8.00;7.00;;;;;;;;5085965;27;47348;-70
2022/04/10 12:18:51;;;;;;;;;5.67;5.67;;;;;;;;5088213;27;45447;-70
2022/04/10 12:21:17;;;;;;;;;8.00;6.67;;;;;;;;5098188;27;45529;-70
2022/04/10 12:23:42;;;;;;;;;7.00;7.00;;;;;;;;5088528;27;45380;-67
2022/04/10 12:26:07;;;;;;;;;9.33;9.33;;;;;;;;5094184;27;46366;-68
2022/04/10 12:28:33;;;;;;;;;9.67;9.67;;;;;;;;5079193;27;45423;-70
2022/04/10 12:31:00;;;;;;;;;10.33;7.00;;;;;;;;5078536;28;45376;-67
2022/04/10 12:33:25;;;;;;;;;6.00;5.33;;;;;;;;5078355;28;45723;-69
2022/04/10 12:35:50;;;;;;;;;8.33;6.00;;;;;;;;5077007;28;46245;-68
2022/04/10 12:38:19;;;;;;;;;19.67;13.00;;;;;;;;5077812;28;45422;-68
2022/04/10 12:40:44;;;;;;;;;7.67;6.67;;;;;;;;5089051;27;45381;-68
2022/04/10 12:43:12;;;;;;;;;6.00;6.00;;;;;;;;5083131;27;45403;-70
2022/04/10 12:45:37;;;;;;;;;7.67;7.33;;;;;;;;5081548;27;45454;-67
2022/04/10 12:48:22;;;;;;;;;9.00;7.00;;;;;;;;5097592;27;45430;-68
2022/04/10 12:51:02;;;;;;;;;4.67;4.00;;;;;;;;5083499;27;45859;-73
2022/04/10 12:53:28;;;;;;;;;10.67;10.00;;;;;;;;5081243;27;45373;-74
2022/04/10 12:55:53;;;;;;;;;7.33;6.33;;;;;;;;5080535;27;48466;-73
2022/04/10 12:58:19;;;;;;;;;9.67;6.67;;;;;;;;5078550;27;45449;-70
2022/04/10 13:00:45;;;;;;;;;5.00;5.00;;;;;;;;5078086;27;45671;-67
2022/04/10 13:03:18;;;;;;;;;9.33;6.00;;;;;;;;5088922;27;45491;-69
2022/04/10 13:05:57;;;;;;;;;11.67;10.33;;;;;;;;5098118;27;45441;-72
2022/04/10 13:08:23;;;;;;;;;5.67;5.67;;;;;;;;5098152;27;45472;-73
2022/04/10 13:10:50;;;;;;;;;7.00;7.00;;;;;;;;5095776;27;45438;-72
2022/04/10 13:13:15;;;;;;;;;4.67;4.67;;;;;;;;5097804;27;45549;-72
2022/04/10 13:15:40;;;;;;;;;4.00;4.00;;;;;;;;5098262;27;47318;-72
2022/04/10 13:18:06;;;;;;;;;5.00;5.00;;;;;;;;5098376;27;45362;-71
2022/04/10 13:20:35;;;;;;;;;5.00;5.00;;;;;;;;5070320;27;45373;-71
2022/04/10 13:23:00;;;;;;;;;4.67;4.67;;;;;;;;5076720;28;45543;-70
2022/04/10 13:25:26;;;;;;;;;6.67;4.67;;;;;;;;5077376;27;46276;-70
2022/04/10 13:27:52;;;;;;;;;6.33;5.00;;;;;;;;5077944;28;45354;-70
2022/04/10 13:30:18;;;;;;;;;6.00;5.67;;;;;;;;5089686;27;45219;-70
2022/04/10 13:32:43;;;;;;;;;8.67;5.67;;;;;;;;5077613;27;45662;-69
2022/04/10 13:35:09;;;;;;;;;5.00;4.67;;;;;;;;5084130;27;45471;-70
2022/04/10 13:37:35;;;;;;;;;7.67;5.67;;;;;;;;5087721;27;45412;-70
2022/04/10 13:40:00;;;;;;;;;12.33;7.00;;;;;;;;5090931;27;46046;-70
2022/04/10 13:42:25;;;;;;;;;5.67;5.67;;;;;;;;5077675;27;45345;-70
2022/04/10 13:44:51;;;;;;;;;6.00;5.33;;;;;;;;5087861;27;46129;-70
2022/04/10 13:47:17;;;;;;;;;4.33;4.00;;;;;;;;5097524;27;45509;-70
2022/04/10 13:49:42;;;;;;;;;8.33;6.33;;;;;;;;5098094;27;45405;-70
2022/04/10 13:52:07;;;;;;;;;7.33;6.00;;;;;;;;5098682;27;45336;-70
2022/04/10 13:54:33;;;;;;;;;5.33;5.33;;;;;;;;5097823;27;46114;-70
2022/04/10 13:56:58;;;;;;;;;12.00;7.67;;;;;;;;5098079;27;45330;-70
2022/04/10 13:59:23;;;;;;;;;19.67;16.00;;;;;;;;5097996;27;45703;-70
2022/04/10 14:01:48;;;;;;;;;7.67;6.33;;;;;;;;5098050;27;45404;-70
2022/04/10 14:04:14;;;;;;;;;8.00;6.00;;;;;;;;5098118;27;45338;-70
2022/04/10 14:06:39;;;;;;;;;13.33;11.67;;;;;;;;5096712;27;45324;-70
2022/04/10 14:09:04;;;;;;;;;10.00;10.00;;;;;;;;5098108;27;45382;-70
2022/04/10 14:11:30;;;;;;;;;5.33;4.67;;;;;;;;5098012;27;45269;-70
2022/04/10 14:13:56;;;;;;;;;7.33;6.33;;;;;;;;5097840;27;46155;-70
2022/04/10 14:16:22;;;;;;;;;8.67;8.00;;;;;;;;5097446;27;45321;-71
2022/04/10 14:18:47;;;;;;;;;6.67;6.33;;;;;;;;5097947;27;45248;-71
2022/04/10 14:21:13;;;;;;;;;11.33;10.67;;;;;;;;5097999;27;45317;-71
2022/04/10 14:23:38;;;;;;;;;10.00;9.33;;;;;;;;5097541;27;45536;-70
2022/04/10 14:26:05;;;;;;;;;7.33;7.33;;;;;;;;5097336;27;45252;-70
2022/04/10 14:28:31;;;;;;;;;10.00;8.00;;;;;;;;5097676;27;45386;-71
2022/04/10 14:30:57;;;;;;;;;8.67;8.67;;;;;;;;5097796;27;45415;-70
2022/04/10 14:33:22;;;;;;;;;8.33;8.33;;;;;;;;5097480;27;46436;-71
2022/04/10 14:35:47;;;;;;;;;9.33;8.67;;;;;;;;5097418;27;45384;-70